createdAt,value
2023-03-23T00:00:09.903Z,0.70
2023-03-23T00:00:30.968Z,0.60
2023-03-23T00:00:52.016Z,0.60
2023-03-23T00:01:13.170Z,0.60
2023-03-23T00:01:34.519Z,0.80
2023-03-23T00:01:55.583Z,0.70
2023-03-23T00:02:16.641Z,0.70
2023-03-23T00:02:37.707Z,0.70
2023-03-23T00:02:58.779Z,0.70
2023-03-23T00:03:19.841Z,0.80
2023-03-23T00:03:40.884Z,0.80
2023-03-23T00:04:01.950Z,0.70
2023-03-23T00:04:22.997Z,0.80
2023-03-23T00:04:44.124Z,0.70
2023-03-23T00:05:05.188Z,0.70
2023-03-23T00:05:26.455Z,0.90
2023-03-23T00:05:47.571Z,0.60
2023-03-23T00:06:08.641Z,0.60
2023-03-23T00:06:29.764Z,0.80
2023-03-23T00:06:50.779Z,0.90
2023-03-23T00:07:11.860Z,0.80
2023-03-23T00:07:32.927Z,0.80
2023-03-23T00:07:54.008Z,0.90
2023-03-23T00:08:15.422Z,0.80
2023-03-23T00:08:36.493Z,0.80
2023-03-23T00:08:58.326Z,0.70
2023-03-23T00:09:19.929Z,0.70
2023-03-23T00:09:41.050Z,0.70
2023-03-23T00:10:02.113Z,0.70
2023-03-23T00:10:23.180Z,0.70
2023-03-23T00:10:44.238Z,0.70
2023-03-23T00:11:05.783Z,0.60
2023-03-23T00:11:26.816Z,0.60
2023-03-23T00:11:47.899Z,0.60
2023-03-23T00:12:08.949Z,0.60
2023-03-23T00:12:30.590Z,0.70
2023-03-23T00:12:53.132Z,0.70
2023-03-23T00:13:14.224Z,0.80
2023-03-23T00:13:35.294Z,0.80
2023-03-23T00:13:56.333Z,0.80
2023-03-23T00:14:17.412Z,0.60
2023-03-23T00:14:38.562Z,0.60
2023-03-23T00:14:59.857Z,0.70
2023-03-23T00:15:21.154Z,0.70
2023-03-23T00:15:42.509Z,0.80
2023-03-23T00:16:04.463Z,0.90
2023-03-23T00:16:25.552Z,0.80
2023-03-23T00:16:46.697Z,0.60
2023-03-23T00:17:07.757Z,0.60
2023-03-23T00:17:28.802Z,0.80
2023-03-23T00:17:49.863Z,0.90
2023-03-23T00:18:10.930Z,0.90
2023-03-23T00:18:32.322Z,0.60
2023-03-23T00:18:53.376Z,0.80
2023-03-23T00:19:14.479Z,0.90
2023-03-23T00:19:35.793Z,0.80
2023-03-23T00:19:56.865Z,0.80
2023-03-23T00:20:17.952Z,0.80
2023-03-23T00:20:39.017Z,0.80
2023-03-23T00:21:00.111Z,0.80
2023-03-23T00:21:21.144Z,0.90
2023-03-23T00:21:42.215Z,0.60
2023-03-23T00:22:03.264Z,0.70
2023-03-23T00:22:24.333Z,0.80
2023-03-23T00:22:45.418Z,0.70
2023-03-23T00:23:06.473Z,0.60
2023-03-23T00:23:27.515Z,0.60
2023-03-23T00:23:48.616Z,0.70
2023-03-23T00:24:09.654Z,1.10
2023-03-23T00:24:30.732Z,0.70
2023-03-23T00:24:51.826Z,0.70
2023-03-23T00:25:12.917Z,0.70
2023-03-23T00:25:34.181Z,0.80
2023-03-23T00:25:55.271Z,0.80
2023-03-23T00:26:16.333Z,0.90
2023-03-23T00:26:48.180Z,0.80
2023-03-23T00:27:04.366Z,0.60
2023-03-23T00:27:25.453Z,0.60
2023-03-23T00:27:46.500Z,0.70
2023-03-23T00:28:07.576Z,0.80
2023-03-23T00:28:28.634Z,0.60
2023-03-23T00:28:49.781Z,0.60
2023-03-23T00:29:10.832Z,0.70
2023-03-23T00:29:31.939Z,0.90
2023-03-23T00:29:52.993Z,0.80
2023-03-23T00:30:14.094Z,0.70
2023-03-23T00:30:35.128Z,0.70
2023-03-23T00:30:56.254Z,0.60
2023-03-23T00:31:17.334Z,0.60
2023-03-23T00:31:38.547Z,0.60
2023-03-23T00:31:59.628Z,0.60
2023-03-23T00:32:20.662Z,0.70
2023-03-23T00:32:41.725Z,0.90
2023-03-23T00:33:02.782Z,0.80
2023-03-23T00:33:23.872Z,0.70
2023-03-23T00:33:44.913Z,0.70
2023-03-23T00:34:06.058Z,0.60
2023-03-23T00:34:27.209Z,0.60
2023-03-23T00:34:48.255Z,0.70
2023-03-23T00:35:09.330Z,0.70
2023-03-23T00:35:30.424Z,0.70
2023-03-23T00:35:51.487Z,0.70
2023-03-23T00:36:12.552Z,0.80
2023-03-23T00:36:33.620Z,0.70
2023-03-23T00:36:54.690Z,0.60
2023-03-23T00:37:15.744Z,0.60
2023-03-23T00:37:36.777Z,0.70
2023-03-23T00:37:58.471Z,0.70
2023-03-23T00:38:19.663Z,0.70
2023-03-23T00:38:40.888Z,0.60
2023-03-23T00:39:02.479Z,0.50
2023-03-23T00:39:23.743Z,0.60
2023-03-23T00:39:44.803Z,0.60
2023-03-23T00:40:05.899Z,0.70
2023-03-23T00:40:26.999Z,0.60
2023-03-23T00:40:48.015Z,0.80
2023-03-23T00:41:09.207Z,0.70
2023-03-23T00:41:30.440Z,0.60
2023-03-23T00:41:51.511Z,0.80
2023-03-23T00:42:12.572Z,0.80
2023-03-23T00:42:33.629Z,0.70
2023-03-23T00:42:54.687Z,0.70
2023-03-23T00:43:15.751Z,0.80
2023-03-23T00:43:36.792Z,0.60
2023-03-23T00:43:57.875Z,0.70
2023-03-23T00:44:22.005Z,0.60
2023-03-23T00:44:44.049Z,0.70
2023-03-23T00:45:05.163Z,0.70
2023-03-23T00:45:26.226Z,0.60
2023-03-23T00:45:47.286Z,0.80
2023-03-23T00:46:08.338Z,0.70
2023-03-23T00:46:29.431Z,0.70
2023-03-23T00:46:50.548Z,0.70
2023-03-23T00:47:11.599Z,0.60
2023-03-23T00:47:32.898Z,0.80
2023-03-23T00:47:54.039Z,0.70
2023-03-23T00:48:15.123Z,0.60
2023-03-23T00:48:36.237Z,0.60
2023-03-23T00:48:57.297Z,0.70
2023-03-23T00:49:18.356Z,0.70
2023-03-23T00:49:39.416Z,0.60
2023-03-23T00:50:00.620Z,0.60
2023-03-23T00:50:29.430Z,0.60
2023-03-23T00:50:48.642Z,0.80
2023-03-23T00:51:09.698Z,0.90
2023-03-23T00:51:30.757Z,0.80
2023-03-23T00:51:51.808Z,0.70
2023-03-23T00:52:12.893Z,0.60
2023-03-23T00:52:33.965Z,0.50
2023-03-23T00:52:55.010Z,0.50
2023-03-23T00:53:16.506Z,0.70
2023-03-23T00:53:37.681Z,0.70
2023-03-23T00:53:58.723Z,0.60
2023-03-23T00:54:19.802Z,0.70
2023-03-23T00:54:40.840Z,0.70
2023-03-23T00:55:02.084Z,0.70
2023-03-23T00:55:23.149Z,0.60
2023-03-23T00:55:44.202Z,0.50
2023-03-23T00:56:05.302Z,0.60
2023-03-23T00:56:26.651Z,0.60
2023-03-23T00:56:47.685Z,0.50
2023-03-23T00:57:08.764Z,0.60
2023-03-23T00:57:29.798Z,0.60
2023-03-23T00:57:51.103Z,0.70
2023-03-23T00:58:13.934Z,0.70
2023-03-23T00:58:35.069Z,0.60
2023-03-23T00:58:56.124Z,0.70
2023-03-23T00:59:17.179Z,0.70
2023-03-23T00:59:38.241Z,0.70
2023-03-23T00:59:59.314Z,0.70
2023-03-23T01:00:26.486Z,0.70
2023-03-23T01:00:47.537Z,0.60
2023-03-23T01:01:08.594Z,0.80
2023-03-23T01:01:29.776Z,0.70
2023-03-23T01:01:50.870Z,0.60
2023-03-23T01:02:12.176Z,0.80
2023-03-23T01:02:33.231Z,0.70
2023-03-23T01:02:54.290Z,0.70
2023-03-23T01:03:15.360Z,0.70
2023-03-23T01:03:36.466Z,0.60
2023-03-23T01:03:57.525Z,0.70
2023-03-23T01:04:18.587Z,0.70
2023-03-23T01:04:39.674Z,0.60
2023-03-23T01:05:01.094Z,0.70
2023-03-23T01:05:22.191Z,0.60
2023-03-23T01:05:43.258Z,0.50
2023-03-23T01:06:04.356Z,0.70
2023-03-23T01:06:31.316Z,0.60
2023-03-23T01:06:52.451Z,0.70
2023-03-23T01:07:13.486Z,0.60
2023-03-23T01:07:34.586Z,0.50
2023-03-23T01:07:55.654Z,0.60
2023-03-23T01:08:16.706Z,0.70
2023-03-23T01:08:37.766Z,0.60
2023-03-23T01:08:58.873Z,0.60
2023-03-23T01:09:19.951Z,0.70
2023-03-23T01:09:41.022Z,0.70
2023-03-23T01:10:02.056Z,0.70
2023-03-23T01:10:23.151Z,0.70
2023-03-23T01:10:44.230Z,0.70
2023-03-23T01:11:06.000Z,0.70
2023-03-23T01:11:27.231Z,0.60
2023-03-23T01:11:48.281Z,0.60
2023-03-23T01:12:09.342Z,0.60
2023-03-23T01:12:30.425Z,0.80
2023-03-23T01:12:51.651Z,0.70
2023-03-23T01:13:12.707Z,0.50
2023-03-23T01:13:33.776Z,0.70
2023-03-23T01:13:54.816Z,0.60
2023-03-23T01:14:15.893Z,0.60
2023-03-23T01:14:37.408Z,0.70
2023-03-23T01:14:58.496Z,0.60
2023-03-23T01:15:19.682Z,0.60
2023-03-23T01:15:41.064Z,0.60
2023-03-23T01:16:02.456Z,0.70
2023-03-23T01:16:24.139Z,0.60
2023-03-23T01:16:45.188Z,0.70
2023-03-23T01:17:06.264Z,0.90
2023-03-23T01:17:27.336Z,0.70
2023-03-23T01:17:48.399Z,0.70
2023-03-23T01:18:09.471Z,0.70
2023-03-23T01:18:34.132Z,0.80
2023-03-23T01:18:55.212Z,0.60
2023-03-23T01:19:16.275Z,0.60
2023-03-23T01:19:37.695Z,0.60
2023-03-23T01:19:58.822Z,0.70
2023-03-23T01:20:20.115Z,0.70
2023-03-23T01:20:41.372Z,0.70
2023-03-23T01:21:02.602Z,0.80
2023-03-23T01:21:23.929Z,0.90
2023-03-23T01:21:44.977Z,0.80
2023-03-23T01:22:06.047Z,0.70
2023-03-23T01:22:27.123Z,0.70
2023-03-23T01:22:48.168Z,0.70
2023-03-23T01:23:09.216Z,0.60
2023-03-23T01:23:30.270Z,0.60
2023-03-23T01:23:51.338Z,0.80
2023-03-23T01:24:12.439Z,0.90
2023-03-23T01:24:33.505Z,0.70
2023-03-23T01:24:54.577Z,0.80
2023-03-23T01:25:15.857Z,0.70
2023-03-23T01:25:36.913Z,0.70
2023-03-23T01:25:57.976Z,0.80
2023-03-23T01:26:19.049Z,0.70
2023-03-23T01:26:40.137Z,0.60
2023-03-23T01:27:01.386Z,0.60
2023-03-23T01:27:22.435Z,0.70
2023-03-23T01:27:43.491Z,0.70
2023-03-23T01:28:04.653Z,0.70
2023-03-23T01:28:25.687Z,0.60
2023-03-23T01:28:46.752Z,0.70
2023-03-23T01:29:08.013Z,0.50
2023-03-23T01:29:29.386Z,0.70
2023-03-23T01:29:50.443Z,0.70
2023-03-23T01:30:11.518Z,0.50
2023-03-23T01:30:32.567Z,0.60
2023-03-23T01:30:53.627Z,0.70
2023-03-23T01:31:14.806Z,0.70
2023-03-23T01:31:35.906Z,0.70
2023-03-23T01:31:56.968Z,0.80
2023-03-23T01:32:18.033Z,0.80
2023-03-23T01:32:39.095Z,0.60
2023-03-23T01:33:00.158Z,0.60
2023-03-23T01:33:21.222Z,0.70
2023-03-23T01:33:42.287Z,0.70
2023-03-23T01:34:03.344Z,0.60
2023-03-23T01:34:24.397Z,0.70
2023-03-23T01:34:45.473Z,0.70
2023-03-23T01:35:06.869Z,0.70
2023-03-23T01:35:27.954Z,0.70
2023-03-23T01:35:49.046Z,0.70
2023-03-23T01:36:10.198Z,0.70
2023-03-23T01:36:31.270Z,0.60
2023-03-23T01:36:52.413Z,0.70
2023-03-23T01:37:13.643Z,0.70
2023-03-23T01:37:34.701Z,0.70
2023-03-23T01:37:55.767Z,0.70
2023-03-23T01:38:16.893Z,0.70
2023-03-23T01:38:37.934Z,0.60
2023-03-23T01:38:59.024Z,0.60
2023-03-23T01:39:20.097Z,0.70
2023-03-23T01:39:41.145Z,0.70
2023-03-23T01:40:02.219Z,0.60
2023-03-23T01:40:23.261Z,0.70
2023-03-23T01:40:44.456Z,0.60
2023-03-23T01:41:05.565Z,0.80
2023-03-23T01:41:26.617Z,0.70
2023-03-23T01:41:47.659Z,0.90
2023-03-23T01:42:08.721Z,0.90
2023-03-23T01:42:29.900Z,0.70
2023-03-23T01:42:50.953Z,0.60
2023-03-23T01:43:12.032Z,0.60
2023-03-23T01:43:33.104Z,0.60
2023-03-23T01:43:54.206Z,0.60
2023-03-23T01:44:15.242Z,0.60
2023-03-23T01:44:36.307Z,0.70
2023-03-23T01:44:57.347Z,0.60
2023-03-23T01:45:18.405Z,0.70
2023-03-23T01:45:39.621Z,0.60
2023-03-23T01:46:00.675Z,0.70
2023-03-23T01:46:21.850Z,0.60
2023-03-23T01:46:42.959Z,0.70
2023-03-23T01:47:04.019Z,0.70
2023-03-23T01:47:25.123Z,0.70
2023-03-23T01:47:46.366Z,0.70
2023-03-23T01:48:07.503Z,0.70
2023-03-23T01:48:28.559Z,0.80
2023-03-23T01:48:49.640Z,0.90
2023-03-23T01:49:10.859Z,0.70
2023-03-23T01:49:31.924Z,0.60
2023-03-23T01:49:52.979Z,0.80
2023-03-23T01:50:14.032Z,0.80
2023-03-23T01:50:35.101Z,0.70
2023-03-23T01:50:56.681Z,0.70
2023-03-23T01:51:17.734Z,0.60
2023-03-23T01:51:42.082Z,0.80
2023-03-23T01:52:03.238Z,0.90
2023-03-23T01:52:24.382Z,0.80
2023-03-23T01:52:45.444Z,0.60
2023-03-23T01:53:06.649Z,0.60
2023-03-23T01:53:27.727Z,0.50
2023-03-23T01:53:48.770Z,0.60
2023-03-23T01:54:10.152Z,0.80
2023-03-23T01:54:31.232Z,0.70
2023-03-23T01:54:52.259Z,0.90
2023-03-23T01:55:13.339Z,0.70
2023-03-23T01:55:34.672Z,0.60
2023-03-23T01:55:55.732Z,0.80
2023-03-23T01:56:16.783Z,0.60
2023-03-23T01:56:37.932Z,0.90
2023-03-23T01:56:58.982Z,0.60
2023-03-23T01:57:20.236Z,0.90
2023-03-23T01:57:45.689Z,0.70
2023-03-23T01:58:27.786Z,0.90
2023-03-23T01:58:48.944Z,0.80
2023-03-23T01:59:10.101Z,0.80
2023-03-23T01:59:31.147Z,0.80
2023-03-23T01:59:52.200Z,0.70
2023-03-23T02:00:13.264Z,0.80
2023-03-23T02:00:34.321Z,0.70
2023-03-23T02:00:55.374Z,0.70
2023-03-23T02:01:16.432Z,0.80
2023-03-23T02:01:37.593Z,0.80
2023-03-23T02:01:58.643Z,0.80
2023-03-23T02:02:20.366Z,0.80
2023-03-23T02:02:41.441Z,0.90
2023-03-23T02:03:02.496Z,0.80
2023-03-23T02:03:23.559Z,0.70
2023-03-23T02:03:44.678Z,0.70
2023-03-23T02:04:05.715Z,0.70
2023-03-23T02:04:27.252Z,0.70
2023-03-23T02:04:48.311Z,0.90
2023-03-23T02:05:09.360Z,0.90
2023-03-23T02:05:30.418Z,0.70
2023-03-23T02:05:51.486Z,0.90
2023-03-23T02:06:12.541Z,0.60
2023-03-23T02:06:33.610Z,0.60
2023-03-23T02:06:54.658Z,0.80
2023-03-23T02:07:15.967Z,1.00
2023-03-23T02:07:36.997Z,0.70
2023-03-23T02:07:58.091Z,0.60
2023-03-23T02:08:19.166Z,0.60
2023-03-23T02:08:40.306Z,0.70
2023-03-23T02:09:10.374Z,0.60
2023-03-23T02:09:28.518Z,0.60
2023-03-23T02:09:49.574Z,0.60
2023-03-23T02:10:10.635Z,0.60
2023-03-23T02:10:31.709Z,0.70
2023-03-23T02:10:52.760Z,0.60
2023-03-23T02:11:22.148Z,0.90
2023-03-23T02:11:40.796Z,0.80
2023-03-23T02:12:01.896Z,0.50
2023-03-23T02:12:23.451Z,0.60
2023-03-23T02:12:44.507Z,0.70
2023-03-23T02:13:06.086Z,0.60
2023-03-23T02:13:27.138Z,0.80
2023-03-23T02:13:48.217Z,0.70
2023-03-23T02:14:09.298Z,0.70
2023-03-23T02:14:30.354Z,0.90
2023-03-23T02:14:51.396Z,0.60
2023-03-23T02:15:12.454Z,0.70
2023-03-23T02:15:33.785Z,0.70
2023-03-23T02:15:54.855Z,0.60
2023-03-23T02:16:15.921Z,0.60
2023-03-23T02:16:36.968Z,0.80
2023-03-23T02:16:58.018Z,0.80
2023-03-23T02:17:19.095Z,0.60
2023-03-23T02:17:40.163Z,0.70
2023-03-23T02:18:01.209Z,0.80
2023-03-23T02:18:22.448Z,0.60
2023-03-23T02:18:43.510Z,0.60
2023-03-23T02:19:04.578Z,0.60
2023-03-23T02:19:25.661Z,0.60
2023-03-23T02:19:46.711Z,0.60
2023-03-23T02:20:07.774Z,0.70
2023-03-23T02:20:28.847Z,0.80
2023-03-23T02:20:49.912Z,0.70
2023-03-23T02:21:10.968Z,0.90
2023-03-23T02:21:32.019Z,0.80
2023-03-23T02:21:53.071Z,0.60
2023-03-23T02:22:14.134Z,0.80
2023-03-23T02:22:35.200Z,0.80
2023-03-23T02:22:56.252Z,0.70
2023-03-23T02:23:17.318Z,0.70
2023-03-23T02:23:38.376Z,0.80
2023-03-23T02:23:59.446Z,0.90
2023-03-23T02:24:20.492Z,0.60
2023-03-23T02:24:41.927Z,0.80
2023-03-23T02:25:02.993Z,0.70
2023-03-23T02:25:24.033Z,0.70
2023-03-23T02:25:45.121Z,0.60
2023-03-23T02:26:06.151Z,0.80
2023-03-23T02:26:27.206Z,0.80
2023-03-23T02:26:48.534Z,0.80
2023-03-23T02:27:09.606Z,0.80
2023-03-23T02:27:30.658Z,0.90
2023-03-23T02:27:51.726Z,0.70
2023-03-23T02:28:12.774Z,0.70
2023-03-23T02:28:33.831Z,0.70
2023-03-23T02:28:54.887Z,0.70
2023-03-23T02:29:16.406Z,0.80
2023-03-23T02:29:37.525Z,0.80
2023-03-23T02:29:58.613Z,1.00
2023-03-23T02:30:19.678Z,0.90
2023-03-23T02:30:40.733Z,0.80
2023-03-23T02:31:02.398Z,0.70
2023-03-23T02:31:23.537Z,1.00
2023-03-23T02:31:44.592Z,1.20
2023-03-23T02:32:05.840Z,0.80
2023-03-23T02:32:26.897Z,0.70
2023-03-23T02:32:48.072Z,0.70
2023-03-23T02:33:09.103Z,0.70
2023-03-23T02:33:30.160Z,0.60
2023-03-23T02:33:51.270Z,0.70
2023-03-23T02:34:12.380Z,0.80
2023-03-23T02:34:33.499Z,0.80
2023-03-23T02:34:54.829Z,0.60
2023-03-23T02:35:15.915Z,0.80
2023-03-23T02:35:37.112Z,0.80
2023-03-23T02:35:58.181Z,0.80
2023-03-23T02:36:19.546Z,0.80
2023-03-23T02:36:41.135Z,0.80
2023-03-23T02:37:02.197Z,0.80
2023-03-23T02:37:23.254Z,0.70
2023-03-23T02:37:44.303Z,0.60
2023-03-23T02:38:05.503Z,0.80
2023-03-23T02:38:26.579Z,0.80
2023-03-23T02:38:47.622Z,0.90
2023-03-23T02:39:08.877Z,1.00
2023-03-23T02:39:30.164Z,0.80
2023-03-23T02:39:51.226Z,0.80
2023-03-23T02:40:12.276Z,0.80
2023-03-23T02:40:33.428Z,0.90
2023-03-23T02:40:54.479Z,1.00
2023-03-23T02:41:15.521Z,0.80
2023-03-23T02:41:36.608Z,0.80
2023-03-23T02:41:57.674Z,0.70
2023-03-23T02:42:18.722Z,0.80
2023-03-23T02:42:39.780Z,0.80
2023-03-23T02:43:00.811Z,0.70
2023-03-23T02:43:22.018Z,0.80
2023-03-23T02:43:48.985Z,0.60
2023-03-23T02:44:10.239Z,0.60
2023-03-23T02:44:31.667Z,0.70
2023-03-23T02:44:52.737Z,0.70
2023-03-23T02:45:13.881Z,0.60
2023-03-23T02:45:34.949Z,0.80
2023-03-23T02:45:56.006Z,0.90
2023-03-23T02:46:17.057Z,0.90
2023-03-23T02:46:38.130Z,1.00
2023-03-23T02:46:59.188Z,0.80
2023-03-23T02:47:20.269Z,0.80
2023-03-23T02:47:41.325Z,0.70
2023-03-23T02:48:02.377Z,1.00
2023-03-23T02:48:23.732Z,1.10
2023-03-23T02:48:44.810Z,1.00
2023-03-23T02:49:05.835Z,0.90
2023-03-23T02:49:26.933Z,1.00
2023-03-23T02:49:47.978Z,1.00
2023-03-23T02:50:09.058Z,0.70
2023-03-23T02:50:30.122Z,0.80
2023-03-23T02:50:51.402Z,0.90
2023-03-23T02:51:12.479Z,0.90
2023-03-23T02:51:33.693Z,0.90
2023-03-23T02:52:00.679Z,1.00
2023-03-23T02:52:21.716Z,0.90
2023-03-23T02:52:42.961Z,0.80
2023-03-23T02:53:04.018Z,0.80
2023-03-23T02:53:25.320Z,0.90
2023-03-23T02:53:46.389Z,1.00
2023-03-23T02:54:07.443Z,0.90
2023-03-23T02:54:28.502Z,0.90
2023-03-23T02:54:49.782Z,0.90
2023-03-23T02:55:11.031Z,0.80
2023-03-23T02:55:32.106Z,1.10
2023-03-23T02:55:53.167Z,1.10
2023-03-23T02:56:14.470Z,1.10
2023-03-23T02:56:35.523Z,1.00
2023-03-23T02:56:56.609Z,0.90
2023-03-23T02:57:17.669Z,0.80
2023-03-23T02:57:40.460Z,0.90
2023-03-23T02:58:01.716Z,0.80
2023-03-23T02:58:22.792Z,0.80
2023-03-23T02:58:43.843Z,0.90
2023-03-23T02:59:04.890Z,0.70
2023-03-23T02:59:26.121Z,0.80
2023-03-23T02:59:47.458Z,0.80
2023-03-23T03:00:08.509Z,0.70
2023-03-23T03:00:30.010Z,0.80
2023-03-23T03:00:51.172Z,0.70
2023-03-23T03:01:12.307Z,0.90
2023-03-23T03:01:33.409Z,0.90
2023-03-23T03:01:54.461Z,1.00
2023-03-23T03:02:15.566Z,0.90
2023-03-23T03:02:36.669Z,0.80
2023-03-23T03:02:57.818Z,0.90
2023-03-23T03:03:18.880Z,0.80
2023-03-23T03:03:40.101Z,0.90
2023-03-23T03:04:01.154Z,0.90
2023-03-23T03:04:22.250Z,0.90
2023-03-23T03:04:43.677Z,0.90
2023-03-23T03:05:08.095Z,1.00
2023-03-23T03:05:29.216Z,1.00
2023-03-23T03:05:50.269Z,0.90
2023-03-23T03:06:11.338Z,0.90
2023-03-23T03:06:32.430Z,0.90
2023-03-23T03:06:53.751Z,0.90
2023-03-23T03:07:14.945Z,0.90
2023-03-23T03:07:35.999Z,1.10
2023-03-23T03:07:57.069Z,0.90
2023-03-23T03:08:18.285Z,0.90
2023-03-23T03:08:39.793Z,1.20
2023-03-23T03:09:00.974Z,1.10
2023-03-23T03:09:22.317Z,0.90
2023-03-23T03:09:43.400Z,0.90
2023-03-23T03:10:04.474Z,1.00
2023-03-23T03:10:25.516Z,1.10
2023-03-23T03:10:46.583Z,1.10
2023-03-23T03:11:07.722Z,1.10
2023-03-23T03:11:28.972Z,1.10
2023-03-23T03:11:50.034Z,1.10
2023-03-23T03:12:11.105Z,1.20
2023-03-23T03:12:32.308Z,1.40
2023-03-23T03:12:53.410Z,1.10
2023-03-23T03:13:14.438Z,1.00
2023-03-23T03:13:35.596Z,1.00
2023-03-23T03:13:57.036Z,1.00
2023-03-23T03:14:18.141Z,1.10
2023-03-23T03:14:39.234Z,0.80
2023-03-23T03:15:00.291Z,0.80
2023-03-23T03:15:21.369Z,0.90
2023-03-23T03:15:42.627Z,1.20
2023-03-23T03:16:03.884Z,1.10
2023-03-23T03:16:24.915Z,1.10
2023-03-23T03:16:46.048Z,1.10
2023-03-23T03:17:07.355Z,1.10
2023-03-23T03:17:28.463Z,1.00
2023-03-23T03:17:49.549Z,1.10
2023-03-23T03:18:10.634Z,1.20
2023-03-23T03:18:31.721Z,1.10
2023-03-23T03:18:52.762Z,0.90
2023-03-23T03:19:13.830Z,1.10
2023-03-23T03:19:34.881Z,1.00
2023-03-23T03:19:56.006Z,0.90
2023-03-23T03:20:17.193Z,0.90
2023-03-23T03:20:38.266Z,1.00
2023-03-23T03:21:00.550Z,1.00
2023-03-23T03:21:22.113Z,0.90
2023-03-23T03:21:43.304Z,0.90
2023-03-23T03:22:04.739Z,0.90
2023-03-23T03:22:26.012Z,1.00
2023-03-23T03:22:47.174Z,1.10
2023-03-23T03:23:08.232Z,0.80
2023-03-23T03:23:29.312Z,1.00
2023-03-23T03:23:50.874Z,1.00
2023-03-23T03:24:11.941Z,0.90
2023-03-23T03:24:33.528Z,0.90
2023-03-23T03:24:54.960Z,0.80
2023-03-23T03:25:18.790Z,0.90
2023-03-23T03:25:40.401Z,1.00
2023-03-23T03:26:01.559Z,1.00
2023-03-23T03:26:22.594Z,0.80
2023-03-23T03:26:43.961Z,1.00
2023-03-23T03:27:04.996Z,1.00
2023-03-23T03:27:26.111Z,0.90
2023-03-23T03:27:47.175Z,0.90
2023-03-23T03:28:08.260Z,0.90
2023-03-23T03:28:29.356Z,0.80
2023-03-23T03:28:50.507Z,0.80
2023-03-23T03:29:11.537Z,1.00
2023-03-23T03:29:32.586Z,0.80
2023-03-23T03:29:53.643Z,1.10
2023-03-23T03:30:14.722Z,0.90
2023-03-23T03:30:35.766Z,1.00
2023-03-23T03:30:56.832Z,1.00
2023-03-23T03:31:18.032Z,0.80
2023-03-23T03:31:39.135Z,1.00
2023-03-23T03:32:00.202Z,1.00
2023-03-23T03:32:21.511Z,1.10
2023-03-23T03:32:42.553Z,0.90
2023-03-23T03:33:03.790Z,0.90
2023-03-23T03:33:24.912Z,1.00
2023-03-23T03:33:45.980Z,1.00
2023-03-23T03:34:07.018Z,1.00
2023-03-23T03:34:28.071Z,1.00
2023-03-23T03:34:49.124Z,0.90
2023-03-23T03:35:10.344Z,1.10
2023-03-23T03:35:31.422Z,1.00
2023-03-23T03:35:52.579Z,1.00
2023-03-23T03:36:13.652Z,1.10
2023-03-23T03:36:34.697Z,1.10
2023-03-23T03:36:55.947Z,1.10
2023-03-23T03:37:17.004Z,1.10
2023-03-23T03:37:38.083Z,0.90
2023-03-23T03:37:59.217Z,1.00
2023-03-23T03:38:20.289Z,1.00
2023-03-23T03:38:41.352Z,1.00
2023-03-23T03:39:02.494Z,1.10
2023-03-23T03:39:23.541Z,0.90
2023-03-23T03:39:44.612Z,1.00
2023-03-23T03:40:06.092Z,1.00
2023-03-23T03:40:27.186Z,1.00
2023-03-23T03:40:48.333Z,1.00
2023-03-23T03:41:09.409Z,1.10
2023-03-23T03:41:30.519Z,0.90
2023-03-23T03:41:51.597Z,1.00
2023-03-23T03:42:12.651Z,0.90
2023-03-23T03:42:34.258Z,1.00
2023-03-23T03:42:55.370Z,1.00
2023-03-23T03:43:16.620Z,1.10
2023-03-23T03:43:37.842Z,1.10
2023-03-23T03:43:58.894Z,0.90
2023-03-23T03:44:20.377Z,1.00
2023-03-23T03:44:41.431Z,1.10
2023-03-23T03:45:02.511Z,1.20
2023-03-23T03:45:23.553Z,1.10
2023-03-23T03:45:44.773Z,1.10
2023-03-23T03:46:05.829Z,0.90
2023-03-23T03:46:26.898Z,0.90
2023-03-23T03:46:47.958Z,1.10
2023-03-23T03:47:09.238Z,1.10
2023-03-23T03:47:30.330Z,1.20
2023-03-23T03:47:51.373Z,1.20
2023-03-23T03:48:12.600Z,1.10
2023-03-23T03:48:33.645Z,1.10
2023-03-23T03:48:54.722Z,1.10
2023-03-23T03:49:15.810Z,1.10
2023-03-23T03:49:36.876Z,1.00
2023-03-23T03:49:57.928Z,1.10
2023-03-23T03:50:19.331Z,1.00
2023-03-23T03:50:40.394Z,1.00
2023-03-23T03:51:01.449Z,1.20
2023-03-23T03:51:22.511Z,1.10
2023-03-23T03:51:43.797Z,1.10
2023-03-23T03:52:05.073Z,1.00
2023-03-23T03:52:26.136Z,1.20
2023-03-23T03:52:47.268Z,1.10
2023-03-23T03:53:08.344Z,1.10
2023-03-23T03:53:29.390Z,1.00
2023-03-23T03:53:50.562Z,1.10
2023-03-23T03:54:11.631Z,1.00
2023-03-23T03:54:32.768Z,1.20
2023-03-23T03:54:54.298Z,1.30
2023-03-23T03:55:15.357Z,1.30
2023-03-23T03:55:36.406Z,1.20
2023-03-23T03:55:57.943Z,1.10
2023-03-23T03:56:19.023Z,1.10
2023-03-23T03:56:40.243Z,1.10
2023-03-23T03:57:01.398Z,1.20
2023-03-23T03:57:22.836Z,1.30
2023-03-23T03:57:43.889Z,1.20
2023-03-23T03:58:04.945Z,1.30
2023-03-23T03:58:26.176Z,1.20
2023-03-23T03:58:47.238Z,1.30
2023-03-23T03:59:21.726Z,1.10
2023-03-23T03:59:41.197Z,1.20
2023-03-23T04:00:02.692Z,1.00
2023-03-23T04:00:23.971Z,1.10
2023-03-23T04:00:45.031Z,1.10
2023-03-23T04:01:06.363Z,1.20
2023-03-23T04:01:27.645Z,1.20
2023-03-23T04:01:48.687Z,1.60
2023-03-23T04:02:10.622Z,1.40
2023-03-23T04:02:31.765Z,1.10
2023-03-23T04:02:52.839Z,1.10
2023-03-23T04:03:14.498Z,1.20
2023-03-23T04:03:35.786Z,1.30
2023-03-23T04:03:56.840Z,1.30
2023-03-23T04:04:18.061Z,1.20
2023-03-23T04:04:39.131Z,1.20
2023-03-23T04:05:00.356Z,1.10
2023-03-23T04:05:21.542Z,1.00
2023-03-23T04:05:43.357Z,1.10
2023-03-23T04:06:04.606Z,1.20
2023-03-23T04:06:25.688Z,1.10
2023-03-23T04:06:46.723Z,1.10
2023-03-23T04:07:07.775Z,1.10
2023-03-23T04:07:28.878Z,1.20
2023-03-23T04:07:51.265Z,1.30
2023-03-23T04:08:12.340Z,1.40
2023-03-23T04:08:33.402Z,1.20
2023-03-23T04:08:54.450Z,1.10
2023-03-23T04:09:21.461Z,1.00
2023-03-23T04:09:42.617Z,1.30
2023-03-23T04:10:03.904Z,1.20
2023-03-23T04:10:32.885Z,1.00
2023-03-23T04:10:51.969Z,1.30
2023-03-23T04:11:13.079Z,1.20
2023-03-23T04:11:40.041Z,1.10
2023-03-23T04:12:01.560Z,1.00
2023-03-23T04:12:22.649Z,1.20
2023-03-23T04:12:43.706Z,1.00
2023-03-23T04:13:05.089Z,1.10
2023-03-23T04:13:26.141Z,1.10
2023-03-23T04:13:47.511Z,1.10
2023-03-23T04:14:08.698Z,1.10
2023-03-23T04:14:29.777Z,1.00
2023-03-23T04:14:50.841Z,1.20
2023-03-23T04:15:11.947Z,1.10
2023-03-23T04:15:33.319Z,1.00
2023-03-23T04:16:10.113Z,1.20
2023-03-23T04:16:21.341Z,1.20
2023-03-23T04:16:43.091Z,1.50
2023-03-23T04:17:10.047Z,1.30
2023-03-23T04:17:31.644Z,1.30
2023-03-23T04:17:52.732Z,1.20
2023-03-23T04:18:13.774Z,1.00
2023-03-23T04:18:34.859Z,1.40
2023-03-23T04:18:56.248Z,1.20
2023-03-23T04:19:17.308Z,1.00
2023-03-23T04:19:38.378Z,1.30
2023-03-23T04:19:59.543Z,1.30
2023-03-23T04:20:31.651Z,1.10
2023-03-23T04:20:47.595Z,1.20
2023-03-23T04:21:08.652Z,1.10
2023-03-23T04:21:29.717Z,1.20
2023-03-23T04:21:50.766Z,1.10
2023-03-23T04:22:11.831Z,1.20
2023-03-23T04:22:33.154Z,1.10
2023-03-23T04:22:54.363Z,1.10
2023-03-23T04:23:15.890Z,1.30
2023-03-23T04:23:37.888Z,1.20
2023-03-23T04:23:59.052Z,1.00
2023-03-23T04:24:23.484Z,1.20
2023-03-23T04:24:56.387Z,1.00
2023-03-23T04:25:14.072Z,1.00
2023-03-23T04:25:35.119Z,1.10
2023-03-23T04:25:56.288Z,1.30
2023-03-23T04:26:17.330Z,1.10
2023-03-23T04:26:38.523Z,1.10
2023-03-23T04:26:59.581Z,1.20
2023-03-23T04:27:23.924Z,1.30
2023-03-23T04:27:45.038Z,1.10
2023-03-23T04:28:06.091Z,1.30
2023-03-23T04:28:27.134Z,1.30
2023-03-23T04:28:48.195Z,1.20
2023-03-23T04:29:09.396Z,1.10
2023-03-23T04:29:30.448Z,0.90
2023-03-23T04:29:51.941Z,1.20
2023-03-23T04:30:13.218Z,1.20
2023-03-23T04:30:34.292Z,1.10
2023-03-23T04:30:55.390Z,1.30
2023-03-23T04:31:16.942Z,1.10
2023-03-23T04:31:38.194Z,1.10
2023-03-23T04:31:59.825Z,1.40
2023-03-23T04:32:21.203Z,1.30
2023-03-23T04:32:42.254Z,1.20
2023-03-23T04:33:03.559Z,1.10
2023-03-23T04:33:24.625Z,1.20
2023-03-23T04:33:59.529Z,1.30
2023-03-23T04:34:18.566Z,1.20
2023-03-23T04:34:39.948Z,1.10
2023-03-23T04:35:12.738Z,1.20
2023-03-23T04:35:28.654Z,1.00
2023-03-23T04:35:49.990Z,1.20
2023-03-23T04:36:11.134Z,1.20
2023-03-23T04:36:56.495Z,1.10
2023-03-23T04:36:59.208Z,1.30
2023-03-23T04:37:21.841Z,1.10
2023-03-23T04:37:42.881Z,1.30
2023-03-23T04:38:03.969Z,1.10
2023-03-23T04:38:25.088Z,1.10
2023-03-23T04:38:46.139Z,1.10
2023-03-23T04:39:07.243Z,1.50
2023-03-23T04:39:28.306Z,1.40
2023-03-23T04:39:49.345Z,1.30
2023-03-23T04:40:10.552Z,1.00
2023-03-23T04:40:31.612Z,1.00
2023-03-23T04:40:52.684Z,1.00
2023-03-23T04:41:13.727Z,1.20
2023-03-23T04:41:34.796Z,1.30
2023-03-23T04:41:56.092Z,1.20
2023-03-23T04:42:17.143Z,1.10
2023-03-23T04:42:38.199Z,1.10
2023-03-23T04:42:59.594Z,1.20
2023-03-23T04:43:20.630Z,1.20
2023-03-23T04:43:41.683Z,1.20
2023-03-23T04:44:02.743Z,1.30
2023-03-23T04:44:23.807Z,1.10